createdAt,value
2023-02-19T00:00:23.831Z,6.70
2023-02-19T00:03:10.355Z,6.67
2023-02-19T00:05:56.632Z,6.23
2023-02-19T00:08:44.320Z,8.90
2023-02-19T00:11:33.366Z,7.70
2023-02-19T00:14:22.030Z,5.93
2023-02-19T00:17:08.508Z,6.43
2023-02-19T00:19:54.770Z,6.07
2023-02-19T00:22:41.264Z,6.20
2023-02-19T00:25:28.880Z,5.60
2023-02-19T00:28:15.309Z,5.93
2023-02-19T00:31:07.074Z,5.80
2023-02-19T00:33:56.139Z,6.37
2023-02-19T00:36:43.804Z,6.20
2023-02-19T00:39:30.197Z,6.07
2023-02-19T00:42:17.968Z,5.60
2023-02-19T00:45:04.667Z,5.80
2023-02-19T00:47:51.011Z,6.13
2023-02-19T00:50:37.325Z,5.63
2023-02-19T00:53:23.808Z,5.37
2023-02-19T00:56:10.756Z,5.50
2023-02-19T00:58:58.572Z,6.10
2023-02-19T01:01:46.228Z,5.43
2023-02-19T01:04:33.019Z,6.10
2023-02-19T01:07:19.230Z,5.60
2023-02-19T01:10:06.585Z,6.17
2023-02-19T01:12:53.078Z,5.60
2023-02-19T01:15:40.958Z,5.70
2023-02-19T01:18:27.434Z,5.20
2023-02-19T01:21:15.169Z,6.10
2023-02-19T01:24:01.764Z,5.53
2023-02-19T01:26:48.209Z,5.73
2023-02-19T01:29:34.764Z,5.77
2023-02-19T01:32:22.524Z,6.37
2023-02-19T01:35:09.488Z,5.70
2023-02-19T01:37:56.304Z,6.37
2023-02-19T01:40:42.532Z,5.40
2023-02-19T01:43:29.589Z,6.30
2023-02-19T01:46:16.085Z,6.70
2023-02-19T01:49:07.282Z,6.97
2023-02-19T01:51:57.964Z,6.63
2023-02-19T01:54:46.733Z,6.10
2023-02-19T01:57:39.358Z,6.13
2023-02-19T02:00:26.130Z,5.43
2023-02-19T02:03:13.746Z,5.97
2023-02-19T02:06:05.682Z,6.73
2023-02-19T02:09:11.712Z,6.67
2023-02-19T02:11:58.468Z,6.00
2023-02-19T02:14:48.059Z,5.47
2023-02-19T02:17:41.126Z,5.43
2023-02-19T02:20:41.664Z,5.57
2023-02-19T02:23:41.655Z,4.90
2023-02-19T02:26:45.160Z,4.90
2023-02-19T02:29:55.934Z,5.60
2023-02-19T02:32:53.371Z,5.03
2023-02-19T02:35:45.160Z,4.50
2023-02-19T02:38:33.770Z,4.50
2023-02-19T02:41:21.061Z,4.63
2023-02-19T02:44:07.561Z,4.27
2023-02-19T02:46:55.449Z,3.80
2023-02-19T02:50:01.991Z,4.53
2023-02-19T02:53:09.669Z,3.97
2023-02-19T02:55:56.657Z,3.90
2023-02-19T02:58:44.312Z,3.50
2023-02-19T03:01:51.413Z,3.27
2023-02-19T03:05:00.509Z,3.23
2023-02-19T03:07:51.294Z,3.63
2023-02-19T03:10:41.738Z,3.47
2023-02-19T03:13:49.376Z,3.57
2023-02-19T03:16:57.323Z,3.30
2023-02-19T03:19:50.149Z,3.10
2023-02-19T03:22:38.864Z,3.10
2023-02-19T03:25:46.607Z,3.20
2023-02-19T03:28:54.606Z,2.90
2023-02-19T03:31:42.821Z,2.97
2023-02-19T03:34:35.620Z,2.60
2023-02-19T03:37:28.684Z,3.30
2023-02-19T03:40:15.948Z,2.50
2023-02-19T03:43:09.218Z,1.80
2023-02-19T03:46:04.780Z,1.80
2023-02-19T03:48:54.441Z,1.93
2023-02-19T03:51:45.288Z,1.50
2023-02-19T03:54:37.481Z,1.70
2023-02-19T03:57:32.924Z,1.90
2023-02-19T04:00:22.949Z,1.50
2023-02-19T04:03:17.428Z,1.40
2023-02-19T04:06:06.692Z,1.00
2023-02-19T04:08:57.146Z,1.00
2023-02-19T04:11:45.295Z,0.87
2023-02-19T04:14:36.215Z,1.07
2023-02-19T04:17:26.364Z,0.83
2023-02-19T04:20:14.308Z,2.10
2023-02-19T04:23:01.152Z,1.20
2023-02-19T04:25:51.490Z,1.17
2023-02-19T04:28:39.918Z,1.20
2023-02-19T04:31:29.184Z,1.30
2023-02-19T04:34:15.983Z,1.27
2023-02-19T04:37:02.374Z,0.90
2023-02-19T04:39:48.871Z,1.00
2023-02-19T04:42:35.106Z,0.90
2023-02-19T04:45:22.700Z,1.27
2023-02-19T04:48:09.644Z,1.00
2023-02-19T04:50:56.057Z,1.40
2023-02-19T04:53:42.764Z,1.13
2023-02-19T04:56:29.404Z,1.17
2023-02-19T04:59:15.823Z,1.30
2023-02-19T05:02:03.422Z,1.60
2023-02-19T05:04:49.886Z,1.13
2023-02-19T05:07:36.247Z,1.40
2023-02-19T05:10:22.585Z,1.20
2023-02-19T05:13:08.974Z,1.00
2023-02-19T05:15:57.123Z,1.27
2023-02-19T05:18:46.546Z,1.00
2023-02-19T05:21:32.838Z,1.63
2023-02-19T05:24:20.601Z,1.67
2023-02-19T05:27:07.159Z,1.47
2023-02-19T05:29:53.422Z,1.63
2023-02-19T05:32:39.741Z,1.70
2023-02-19T05:35:27.452Z,1.70
2023-02-19T05:38:14.688Z,1.57
2023-02-19T05:41:09.404Z,1.53
2023-02-19T05:43:57.532Z,1.57
2023-02-19T05:46:44.169Z,1.47
2023-02-19T05:49:30.635Z,1.40
2023-02-19T05:52:18.329Z,1.37
2023-02-19T05:55:04.824Z,1.17
2023-02-19T05:57:51.150Z,1.37
2023-02-19T06:00:37.462Z,1.30
2023-02-19T06:03:24.240Z,1.03
2023-02-19T06:06:12.249Z,2.00
2023-02-19T06:09:00.117Z,1.90
2023-02-19T06:11:46.801Z,1.90
2023-02-19T06:14:33.390Z,1.70
2023-02-19T06:17:19.764Z,2.07
2023-02-19T06:20:06.607Z,1.80
2023-02-19T06:22:53.035Z,1.83
2023-02-19T06:25:40.911Z,2.07
2023-02-19T06:28:27.543Z,2.07
2023-02-19T06:31:15.024Z,2.10
2023-02-19T06:34:05.754Z,2.03
2023-02-19T06:36:52.127Z,2.30
2023-02-19T06:39:38.630Z,2.40
2023-02-19T06:42:26.640Z,2.60
2023-02-19T06:45:13.140Z,2.23
2023-02-19T06:47:59.450Z,2.37
2023-02-19T06:50:45.787Z,2.50
2023-02-19T06:53:32.164Z,2.53
2023-02-19T06:56:25.117Z,2.80
2023-02-19T06:59:14.415Z,3.00
2023-02-19T07:02:00.712Z,3.30
2023-02-19T07:04:47.129Z,2.90
2023-02-19T07:07:33.513Z,3.23
2023-02-19T07:10:19.718Z,3.33
2023-02-19T07:13:06.226Z,3.63
2023-02-19T07:15:58.854Z,3.00
2023-02-19T07:18:45.414Z,4.37
2023-02-19T07:21:31.866Z,4.20
2023-02-19T07:24:21.444Z,4.43
2023-02-19T07:27:08.096Z,4.50
2023-02-19T07:29:54.429Z,3.90
2023-02-19T07:32:45.383Z,4.50
2023-02-19T07:35:32.061Z,3.70
2023-02-19T07:38:18.632Z,3.67
2023-02-19T07:41:06.502Z,4.33
2023-02-19T07:43:53.224Z,3.40
2023-02-19T07:46:40.025Z,3.60
2023-02-19T07:49:28.656Z,2.80
2023-02-19T07:52:15.022Z,2.67
2023-02-19T07:55:01.491Z,2.43
2023-02-19T07:57:47.967Z,2.40
2023-02-19T08:00:34.289Z,1.83
2023-02-19T08:03:21.167Z,1.90
2023-02-19T08:06:11.083Z,2.20
2023-02-19T08:08:57.933Z,2.40
2023-02-19T08:12:02.224Z,2.27
2023-02-19T08:14:48.951Z,2.13
2023-02-19T08:17:35.332Z,2.23
2023-02-19T08:20:22.134Z,1.97
2023-02-19T08:23:10.597Z,1.90
2023-02-19T08:25:59.872Z,2.27
2023-02-19T08:28:46.516Z,2.00
2023-02-19T08:31:33.884Z,2.03
2023-02-19T08:34:20.884Z,2.00
2023-02-19T08:37:07.210Z,2.30
2023-02-19T08:39:54.944Z,2.03
2023-02-19T08:42:41.475Z,2.00
2023-02-19T08:45:27.738Z,2.20
2023-02-19T08:48:14.595Z,1.90
2023-02-19T08:51:03.914Z,2.07
2023-02-19T08:53:50.456Z,1.87
2023-02-19T08:56:38.090Z,1.70
2023-02-19T08:59:24.403Z,1.90
2023-02-19T09:02:12.622Z,1.60
2023-02-19T09:04:59.042Z,1.77
2023-02-19T09:07:45.402Z,1.80
2023-02-19T09:10:32.128Z,1.47
2023-02-19T09:13:19.877Z,1.83
2023-02-19T09:16:06.845Z,2.00
2023-02-19T09:18:53.183Z,2.47
2023-02-19T09:21:39.619Z,2.57
2023-02-19T09:24:26.417Z,1.77
2023-02-19T09:27:16.944Z,2.40
2023-02-19T09:30:05.196Z,1.80
2023-02-19T09:32:51.745Z,2.10
2023-02-19T09:35:40.450Z,1.80
2023-02-19T09:38:26.960Z,1.90
2023-02-19T09:41:19.140Z,2.20
2023-02-19T09:44:07.922Z,2.40
2023-02-19T09:46:56.346Z,1.90
2023-02-19T09:49:49.958Z,1.80
2023-02-19T09:52:40.461Z,1.80
2023-02-19T09:55:34.435Z,1.67
2023-02-19T09:58:29.896Z,1.40
2023-02-19T10:01:17.004Z,1.50
2023-02-19T10:04:05.587Z,1.43
2023-02-19T10:06:53.440Z,1.90
2023-02-19T10:09:40.115Z,1.73
2023-02-19T10:12:29.262Z,1.93
2023-02-19T10:15:19.907Z,2.50
2023-02-19T10:18:08.861Z,2.27
2023-02-19T10:20:59.262Z,2.60
2023-02-19T10:23:46.824Z,3.37
2023-02-19T10:26:36.386Z,2.40
2023-02-19T10:29:24.686Z,2.30
2023-02-19T10:32:18.218Z,2.43
2023-02-19T10:35:13.912Z,1.90
2023-02-19T10:38:03.460Z,2.10
2023-02-19T10:40:53.402Z,2.10
2023-02-19T10:43:44.036Z,1.77
2023-02-19T10:46:34.258Z,1.70
2023-02-19T10:49:28.020Z,2.30
2023-02-19T10:52:18.867Z,2.07
2023-02-19T10:55:28.360Z,1.77
2023-02-19T10:58:26.322Z,1.70
2023-02-19T11:01:16.264Z,2.13
2023-02-19T11:04:17.260Z,1.70
2023-02-19T11:07:10.097Z,2.50
2023-02-19T11:09:57.512Z,2.30
2023-02-19T11:12:49.970Z,2.10
2023-02-19T11:15:38.182Z,2.00
2023-02-19T11:18:26.859Z,2.40
2023-02-19T11:21:28.396Z,2.83
2023-02-19T11:24:24.543Z,2.73
2023-02-19T11:27:20.310Z,2.40
2023-02-19T11:30:36.330Z,2.23
2023-02-19T11:33:28.293Z,2.00
2023-02-19T11:36:28.776Z,2.03
2023-02-19T11:39:25.187Z,2.63
2023-02-19T11:42:25.489Z,2.00
2023-02-19T11:45:29.438Z,4.33
2023-02-19T11:48:33.795Z,2.30
2023-02-19T11:51:34.710Z,2.10
2023-02-19T11:54:48.583Z,2.13
2023-02-19T11:57:43.136Z,2.57
2023-02-19T12:00:32.165Z,2.43
2023-02-19T12:03:49.382Z,2.00
2023-02-19T12:06:46.489Z,2.57
2023-02-19T12:09:46.144Z,2.17
2023-02-19T12:12:49.862Z,2.30
2023-02-19T12:15:44.232Z,2.07
2023-02-19T12:19:00.995Z,2.60
2023-02-19T12:22:05.352Z,2.47
2023-02-19T12:25:26.486Z,1.83
2023-02-19T12:28:40.534Z,1.60
2023-02-19T12:32:02.122Z,2.20
2023-02-19T12:35:05.830Z,2.07
2023-02-19T12:38:00.305Z,1.73
2023-02-19T12:41:08.194Z,2.40
2023-02-19T12:43:58.851Z,1.87
2023-02-19T12:46:51.956Z,2.30
2023-02-19T12:49:45.676Z,1.97
2023-02-19T12:52:40.266Z,1.13
2023-02-19T12:55:30.876Z,2.77
2023-02-19T12:58:27.142Z,2.90
2023-02-19T13:01:19.951Z,2.03
2023-02-19T13:04:18.838Z,1.23
2023-02-19T13:07:12.532Z,1.70
2023-02-19T13:10:07.553Z,1.60
2023-02-19T13:12:55.723Z,2.20
2023-02-19T13:15:44.291Z,2.47
2023-02-19T13:18:35.254Z,2.00
2023-02-19T13:21:42.496Z,1.90
2023-02-19T13:24:34.269Z,14.37
2023-02-19T13:27:48.798Z,3.67
2023-02-19T13:30:50.314Z,4.40
2023-02-19T13:33:46.585Z,2.60
2023-02-19T13:36:35.033Z,1.90
2023-02-19T13:39:23.233Z,2.20
2023-02-19T13:42:27.873Z,2.10
2023-02-19T13:45:23.677Z,1.27
2023-02-19T13:48:26.853Z,2.07
2023-02-19T13:51:51.086Z,22.20
2023-02-19T13:54:40.146Z,4.90
2023-02-19T13:57:30.178Z,2.50
2023-02-19T14:00:49.444Z,2.00
2023-02-19T14:03:50.840Z,2.40
2023-02-19T14:07:23.837Z,1.77
2023-02-19T14:10:14.941Z,1.70
2023-02-19T14:13:01.285Z,1.80
2023-02-19T14:15:51.205Z,1.50
2023-02-19T14:18:45.518Z,1.80
2023-02-19T14:21:37.543Z,6.30
2023-02-19T14:24:25.621Z,1.93
2023-02-19T14:27:14.645Z,1.50
2023-02-19T14:30:01.434Z,2.07
2023-02-19T14:32:54.444Z,1.60
2023-02-19T14:35:44.671Z,2.70
2023-02-19T14:38:36.711Z,2.00
2023-02-19T14:41:24.676Z,1.97
2023-02-19T14:44:17.758Z,6.80
2023-02-19T14:47:07.462Z,5.07
2023-02-19T14:49:56.610Z,1.67
2023-02-19T14:52:46.586Z,1.83
2023-02-19T14:55:37.873Z,2.53
2023-02-19T14:58:29.434Z,2.00
2023-02-19T15:01:29.925Z,1.70
2023-02-19T15:04:23.619Z,2.17
2023-02-19T15:07:14.933Z,2.93
2023-02-19T15:10:05.550Z,2.50
2023-02-19T15:12:54.450Z,2.50
2023-02-19T15:15:45.882Z,3.27
2023-02-19T15:18:36.488Z,4.23
2023-02-19T15:21:25.755Z,2.63
2023-02-19T15:24:12.915Z,2.00
2023-02-19T15:26:59.942Z,2.20
2023-02-19T15:29:47.029Z,2.07
2023-02-19T15:32:33.378Z,1.90
2023-02-19T15:35:24.280Z,2.30
2023-02-19T15:38:13.444Z,2.23
2023-02-19T15:40:59.979Z,2.30
2023-02-19T15:43:53.835Z,2.33
2023-02-19T15:46:42.461Z,2.53
2023-02-19T15:49:34.813Z,2.57
2023-02-19T15:52:30.420Z,2.87
2023-02-19T15:55:27.758Z,3.67
2023-02-19T15:58:20.274Z,2.50
2023-02-19T16:01:13.095Z,2.30
2023-02-19T16:04:00.283Z,2.57
2023-02-19T16:06:57.160Z,2.83
2023-02-19T16:09:45.200Z,2.17
2023-02-19T16:12:31.345Z,2.00
2023-02-19T16:15:21.590Z,2.20
2023-02-19T16:18:15.042Z,2.60
2023-02-19T16:21:04.475Z,1.93
2023-02-19T16:23:54.717Z,2.17
2023-02-19T16:26:44.046Z,22.93
2023-02-19T16:29:33.257Z,3.90
2023-02-19T16:32:19.891Z,3.17
2023-02-19T16:35:22.377Z,2.70
2023-02-19T16:38:14.100Z,3.50
2023-02-19T16:41:13.236Z,2.80
2023-02-19T16:44:06.535Z,3.47
2023-02-19T16:46:56.484Z,3.20
2023-02-19T16:49:44.180Z,3.37
2023-02-19T16:52:31.323Z,2.70
2023-02-19T16:55:18.044Z,3.10
2023-02-19T16:58:04.879Z,2.67
2023-02-19T17:00:53.101Z,2.80
2023-02-19T17:03:40.579Z,3.20
2023-02-19T17:06:27.696Z,3.50
2023-02-19T17:09:15.209Z,3.47
2023-02-19T17:12:01.851Z,22.40
2023-02-19T17:14:48.231Z,15.50
2023-02-19T17:17:35.855Z,4.30
2023-02-19T17:20:27.341Z,4.30
2023-02-19T17:23:14.266Z,3.53
2023-02-19T17:26:00.734Z,4.10
2023-02-19T17:28:47.607Z,3.40
2023-02-19T17:31:34.740Z,3.00
2023-02-19T17:34:22.324Z,3.40
2023-02-19T17:37:08.827Z,3.80
2023-02-19T17:39:55.254Z,4.77
2023-02-19T17:42:42.013Z,4.70
2023-02-19T17:45:28.786Z,4.63
2023-02-19T17:48:15.924Z,4.00
2023-02-19T17:51:04.129Z,4.00
2023-02-19T17:53:51.000Z,6.87
2023-02-19T17:56:39.956Z,12.50
2023-02-19T17:59:26.186Z,8.27
2023-02-19T18:02:12.850Z,7.63
2023-02-19T18:04:59.523Z,9.90
2023-02-19T18:07:50.398Z,30.23
2023-02-19T18:10:37.188Z,7.10
2023-02-19T18:13:23.755Z,6.10
2023-02-19T18:16:10.718Z,4.90
2023-02-19T18:18:58.361Z,5.83
2023-02-19T18:21:45.352Z,5.70
2023-02-19T18:24:34.514Z,6.40
2023-02-19T18:27:23.430Z,5.60
2023-02-19T18:30:11.048Z,5.60
2023-02-19T18:32:57.396Z,6.13
2023-02-19T18:35:43.688Z,6.50
2023-02-19T18:38:30.127Z,7.30
2023-02-19T18:41:20.935Z,22.20
2023-02-19T18:44:07.896Z,15.83
2023-02-19T18:46:54.646Z,8.33
2023-02-19T18:49:41.161Z,9.33
2023-02-19T18:52:29.094Z,14.63
2023-02-19T18:55:15.563Z,6.47
2023-02-19T18:58:03.636Z,21.90
2023-02-19T19:00:50.392Z,10.07
2023-02-19T19:03:36.601Z,7.37
2023-02-19T19:06:23.022Z,8.37
2023-02-19T19:09:10.052Z,20.07
2023-02-19T19:11:56.745Z,13.63
2023-02-19T19:14:45.678Z,12.80
2023-02-19T19:17:32.685Z,13.57
2023-02-19T19:20:20.089Z,16.57
2023-02-19T19:23:06.609Z,18.13
2023-02-19T19:25:54.577Z,22.17
2023-02-19T19:28:44.349Z,20.00
2023-02-19T19:31:37.369Z,15.63
2023-02-19T19:34:24.154Z,14.87
2023-02-19T19:37:10.898Z,12.23
2023-02-19T19:39:57.622Z,10.50
2023-02-19T19:42:44.710Z,10.00
2023-02-19T19:45:31.240Z,10.07
2023-02-19T19:48:19.008Z,7.73
2023-02-19T19:51:05.517Z,9.43
2023-02-19T19:53:52.167Z,10.07
2023-02-19T19:56:42.087Z,9.00
2023-02-19T19:59:28.583Z,9.30
2023-02-19T20:02:15.162Z,8.70
2023-02-19T20:05:02.839Z,9.60
2023-02-19T20:07:49.534Z,10.43
2023-02-19T20:10:36.121Z,10.73
2023-02-19T20:13:24.679Z,10.23
2023-02-19T20:16:12.483Z,9.23
2023-02-19T20:18:59.063Z,8.63
2023-02-19T20:21:47.905Z,10.60
2023-02-19T20:24:34.264Z,8.57
2023-02-19T20:27:22.074Z,8.57
2023-02-19T20:30:11.376Z,7.77
2023-02-19T20:32:57.843Z,7.23
2023-02-19T20:35:44.145Z,6.77
2023-02-19T20:38:31.924Z,6.47
2023-02-19T20:41:20.344Z,6.43
2023-02-19T20:44:07.046Z,7.20
2023-02-19T20:46:57.272Z,6.63
2023-02-19T20:49:58.162Z,6.90
2023-02-19T20:52:44.402Z,7.00
2023-02-19T20:55:32.781Z,7.63
2023-02-19T20:58:20.819Z,8.77
2023-02-19T21:01:08.293Z,7.67
2023-02-19T21:03:55.780Z,7.53
2023-02-19T21:06:42.525Z,7.73
2023-02-19T21:09:28.988Z,8.83
2023-02-19T21:12:16.708Z,7.20
2023-02-19T21:15:04.346Z,7.97
2023-02-19T21:17:51.266Z,7.77
2023-02-19T21:20:37.648Z,6.80
2023-02-19T21:23:23.981Z,8.53
2023-02-19T21:26:10.842Z,7.20
2023-02-19T21:28:58.672Z,7.27
2023-02-19T21:31:47.461Z,6.07
2023-02-19T21:34:34.319Z,6.53
2023-02-19T21:37:20.898Z,7.07
2023-02-19T21:40:08.848Z,6.73
2023-02-19T21:42:55.520Z,7.67
2023-02-19T21:45:43.553Z,7.50
2023-02-19T21:48:29.929Z,7.90
2023-02-19T21:51:16.647Z,7.67
2023-02-19T21:54:04.369Z,12.23
2023-02-19T21:56:51.669Z,7.50
2023-02-19T21:59:38.310Z,6.83
2023-02-19T22:02:26.011Z,7.97
2023-02-19T22:05:12.615Z,7.27
2023-02-19T22:08:00.129Z,7.13
2023-02-19T22:10:46.833Z,7.87
2023-02-19T22:13:33.178Z,7.00
2023-02-19T22:16:20.319Z,6.77
2023-02-19T22:19:07.943Z,8.30
2023-02-19T22:21:54.232Z,8.33
2023-02-19T22:24:40.528Z,8.17
2023-02-19T22:27:29.023Z,7.60
2023-02-19T22:30:16.110Z,6.60
2023-02-19T22:33:03.191Z,6.90
2023-02-19T22:35:51.095Z,6.17
2023-02-19T22:38:37.453Z,6.87
2023-02-19T22:41:24.294Z,6.13
2023-02-19T22:44:11.734Z,6.77
2023-02-19T22:46:58.500Z,6.50
2023-02-19T22:49:45.405Z,13.67
2023-02-19T22:52:33.268Z,12.33
2023-02-19T22:55:19.795Z,6.80
2023-02-19T22:58:06.249Z,6.90
2023-02-19T23:00:52.745Z,6.10
2023-02-19T23:03:47.121Z,6.67
2023-02-19T23:06:35.872Z,6.30
2023-02-19T23:09:26.730Z,6.37
2023-02-19T23:12:13.614Z,5.93
2023-02-19T23:15:00.029Z,6.43
2023-02-19T23:17:46.226Z,6.43
2023-02-19T23:20:32.617Z,6.13
2023-02-19T23:23:18.992Z,6.00
2023-02-19T23:26:07.051Z,6.70
2023-02-19T23:28:53.591Z,14.33
2023-02-19T23:31:40.116Z,7.33
2023-02-19T23:34:26.232Z,5.10
2023-02-19T23:37:12.659Z,5.40
2023-02-19T23:40:01.194Z,5.70
2023-02-19T23:42:48.952Z,6.03
2023-02-19T23:45:35.368Z,5.73
2023-02-19T23:48:21.973Z,5.90
2023-02-19T23:51:08.677Z,5.87
2023-02-19T23:53:55.131Z,5.50
2023-02-19T23:56:41.695Z,5.57
2023-02-19T23:59:30.895Z,5.27
